Tiempo atmosférico en la estación meteorológica de San Clemente, Cuenca (728 m.)



Fecha
DESCASC
Temp. máxima en grados centígrados (hora)
DESCASC
Temp. mínima en grados centígrados (hora)
DESCASC
Temp. media en grados centígrados
DESCASC
Racha de viento máxima en m/sg (hora)
DESCASC
Velocidad máxima media en intervalos de 10 minutos(hora)
DESCASC
Precipitaciones diarias en mm
DESCASC
Precipitaciones de 00:00 a 06:00 en mm
DESCASC
Precipitaciones de 06:00 a 12:00 en mm
DESCASC
Precipitaciones de 12:00 a 18:00 en mm
DESCASC
Precipitaciones de 18:00 a 24:00 en mm
DESCASC
16-06-2019 27.7 (16:20) 10.6 (04:10) 19.2 11.39 (13:10) 6.11 (14:00) 0 0 0 0 0
15-06-2019 25.6 (18:40) 8.4 (06:40) 17 13.61 (16:10) 5.28 (13:00) 0 0 0 0 0
14-06-2019 27.2 (17:20) 14.7 (05:00) 21 -- (--) -- (--) 0 0 0 0 0
13-06-2019 25.9 (18:30) 13.3 (00:00) 19.6 -- (--) -- (--) 0 0 0 0 0
12-06-2019 26.8 (19:10) 5.5 (00:00) 16.1 -- (--) -- (--) -- 0 -- 0 0
11-06-2019 23.2 (13:30) 9.9 (00:00) 16.6 -- (--) -- (--) 0 0 0 0 0
10-06-2019 26.3 (16:00) 9 (00:00) 17.6 11.11 (13:50) 6.39 (16:20) 0 0 0 0 0
09-06-2019 28.1 (16:00) 12.9 (00:00) 20.5 11.94 (16:00) 7.5 (18:20) 0 0 0 0 0
08-06-2019 24.4 (16:40) 9.8 (00:00) 17.1 16.11 (12:40) 8.61 (09:20) 0 0 0 0 0
07-06-2019 23 (18:00) 11.4 (00:00) 17.2 11.39 (07:50) 7.5 (08:30) 0 0 0 0 0
06-06-2019 27.6 (17:40) 5.7 (00:00) 16.7 15 (16:40) 8.89 (19:40) 0 0 0 0 0
05-06-2019 21.5 (16:20) 12.9 (00:00) 17.2 18.33 (14:40) 10 (08:30) 0 0 0 0 0
04-06-2019 31.9 (16:00) 12.4 (00:00) 22.1 15.56 (16:50) 8.33 (17:00) 0 0 0 0 0
03-06-2019 33.7 (18:00) 14.5 (00:00) 24.1 10.56 (17:00) 5.83 (18:10) 0 0 0 0 0
02-06-2019 32.9 (18:20) 11.4 (00:00) 22.2 8.33 (17:40) 4.72 (20:30) 0 0 0 0 0
01-06-2019 29.8 (16:50) 10.9 (00:00) 20.3 9.72 (01:30) 5 (00:10) 0 0 0 0 0
31-05-2019 28.1 (17:30) 10.7 (00:00) 19.4 -- (--) -- (--) 0 0 0 0 0
30-05-2019 26.8 (17:10) 8.8 (00:00) 17.8 -- (--) -- (--) 0 0 0 0 0
29-05-2019 26.7 (17:50) 8.6 (00:00) 17.7 10 (19:10) 6.11 (20:30) 0 0 0 0 0
28-05-2019 26.8 (17:00) 11 (00:00) 18.9 -- (--) -- (--) -- 0 0 -- 0
27-05-2019 28.3 (17:30) 8.9 (00:00) 18.6 -- (--) -- (--) 0 0 0 0 0
26-05-2019 25.8 (18:40) 9.6 (00:00) 17.7 -- (--) -- (--) 0 0 0 0 0
25-05-2019 23.2 (19:40) 7.8 (00:00) 15.5 9.44 (17:30) 6.11 (17:30) 0 0 0 0 0
24-05-2019 23.5 (13:30) 11.2 (00:00) 17.3 -- (--) -- (--) 8.8 0 0 8.8 0
23-05-2019 28.4 (17:10) 12 (00:00) 20.2 -- (--) -- (--) 0 0 0 0 0
22-05-2019 28.2 (18:00) 8.9 (00:00) 18.6 8.61 (14:40) 4.17 (00:10) 0 0 0 0 0

Gráficas

Temp. máximas Temp. mínimas Temp. medias Precipitaciones Rachas de viento máximas Velocidades máximas media en intervalos de 10 minutos

Datos horarios

Fecha y hora oficial Temperatura (ºC) Velocidad del viento (km/h) Dirección del viento Racha (km/h) Dirección de racha Precipitación (mm) Presión (hPa) Tendencia (hPa) Humedad (%)
2019-06-20 23:00:00 23.1 7 Norte 16 Nordeste 0 929.6 1.3 33
2019-06-20 22:00:00 24.3 4 Nordeste 13 Norte 0 929.1 0.9 31
2019-06-20 21:00:00 26.5 11 Norte 30 Norte 0 928.4 -0.1 27
2019-06-20 20:00:00 28.8 20 Norte 40 Norte 0 928.3 -0.3 24
2019-06-20 19:00:00 29.4 21 Norte 35 Norte 0 928.2 -1.2 23
2019-06-20 18:00:00 30 16 Norte 40 Norte 0 928.5 -1.8 24
2019-06-20 17:00:00 29.8 16 Norte 42 Norte 0 928.6 -1.9 24
2019-06-20 16:00:00 29.5 9 Noroeste 28 Norte 0 929.4 -1.5 25
2019-06-20 15:00:00 28.7 -- -- -- -- 0 930.3 -0.8 25
2019-06-20 14:00:00 27.7 11 Norte 24 Norte 0 930.5 -0.8 29
2019-06-20 13:00:00 26.4 8 Norte 25 Norte 0 930.9 -0.6 32
2019-06-20 12:00:00 26 6 Oeste 20 Norte 0 931.1 -0.6 34
2019-06-20 11:00:00 24 8 Norte 20 Norte 0 931.3 -0.2 39
2019-06-20 10:00:00 21.7 11 Norte 21 Nordeste 0 931.5 0 45
2019-06-20 09:00:00 19.7 8 Norte 13 Norte 0 931.7 0.2 48
2019-06-20 08:00:00 17.2 5 Norte 9 Norte 0 931.5 0.2 55
2019-06-20 07:00:00 13.5 4 Norte 9 Norte 0 931.5 0 63
2019-06-20 06:00:00 13.2 3 Nordeste 6 Norte 0 931.5 -0.2 58
2019-06-20 05:00:00 14.3 5 Norte 9 Norte 0 931.3 -0.6 60
2019-06-20 04:00:00 15.1 2 Este 8 Este 0 931.5 -0.3 53
2019-06-20 03:00:00 16.3 4 Este 10 Sudeste 0 931.7 0.1 54
2019-06-20 02:00:00 17.2 7 Sur -- -- 0 931.9 0.7 53
2019-06-20 01:00:00 18.2 11 Norte 15 Norte 0 931.8 1.2 49
2019-06-20 00:00:00 19.1 10 Norte 15 Norte 0 931.6 1.1 45
2019-06-19 23:00:00 20.8 10 Norte 15 Nordeste 0 931.2 0.9 38
2019-06-19 22:00:00 23.4 12 Nordeste 18 Nordeste 0 930.6 0.4 34
2019-06-19 21:00:00 26.2 14 Norte 33 Norte 0 930.5 -0.1 27
2019-06-19 20:00:00 28.3 21 Norte 40 Norte 0 930.3 -0.5 23
2019-06-19 19:00:00 29.1 25 Norte 43 Norte 0 930.2 -0.9 24
2019-06-19 18:00:00 29.1 24 Norte 46 Norte 0 930.6 -1.3 23
2019-06-19 17:00:00 29.5 23 Norte 45 Norte 0 930.8 -1.7 22
2019-06-19 16:00:00 29 20 Noroeste 38 Norte 0 931.1 -1.8 25
2019-06-19 15:00:00 27.7 16 Norte -- -- -- 931.9 -1 29
2019-06-19 14:00:00 26.1 18 Norte 35 Noroeste 0 932.5 -0.5 33
2019-06-19 13:00:00 25 13 Norte 35 Norte 0 932.9 -0.4 39
2019-06-19 12:00:00 23.4 17 Norte 31 Norte 0 932.9 -0.5 44
2019-06-19 11:00:00 22 14 Norte 30 Nordeste 0 933 -0.1 51
2019-06-19 10:00:00 20.8 16 Norte 25 Norte 0 933.3 0.8 52
2019-06-19 09:00:00 18.6 10 Noroeste 19 Norte 0 933.4 1.1 44
2019-06-19 08:00:00 15.9 9 Norte 15 Norte 0 933.1 1 39
2019-06-19 07:00:00 14.2 13 Norte 15 Norte 0 932.5 0.6 35
2019-06-19 06:00:00 14 14 Norte 15 Norte 0 932.3 0.3 34
2019-06-19 05:00:00 14.3 12 Norte 14 Norte 0 932.1 -0.2 29
2019-06-19 04:00:00 15.9 12 Norte 15 Norte 0 931.9 -0.2 25
2019-06-19 03:00:00 16.3 4 Norte 10 Noroeste 0 932 -0.1 25
2019-06-19 02:00:00 16.4 8 Norte 21 Nordeste 0 932.3 0.4 24
2019-06-19 01:00:00 17.8 9 Norte 12 Norte 0 932.1 0.9 20
2019-06-19 00:00:00 20.2 10 Noroeste 20 Noroeste 0 932.1 1.4 18
2019-06-18 23:00:00 22.6 15 Noroeste 21 Noroeste 0 931.9 1.5 16
2019-06-18 22:00:00 23.8 12 Noroeste -- -- 0 931.2 1 15
2019-06-18 21:00:00 27.6 18 Noroeste -- -- 0 930.7 0.7 12
2019-06-18 20:00:00 29.5 -- -- -- -- 0 930.4 0.3 10
2019-06-18 19:00:00 30.8 -- -- -- -- 0 930.2 -0.3 10
2019-06-18 18:00:00 31.8 -- -- -- -- 0 930 -0.6 12
2019-06-18 17:00:00 32.3 -- -- -- -- 0 930.1 -0.9 10
2019-06-18 16:00:00 32.5 -- -- -- -- 0 930.5 -1.4 12
2019-06-18 15:00:00 32 19 Noroeste 42 Oeste 0 930.6 -1.9 15
2019-06-18 14:00:00 30.3 10 Noroeste 31 Noroeste 0 931 -1.5 20
2019-06-18 13:00:00 28.1 13 Norte 27 Noroeste 0 931.9 -0.7 23
2019-06-18 12:00:00 27.7 14 Noroeste 26 Norte 0 932.5 -0.3 24
2019-06-18 11:00:00 25.8 13 Noroeste 27 Noroeste 0 932.5 -0.2 27
2019-06-18 10:00:00 23.7 12 Noroeste 21 Norte 0 932.6 0.3 30
2019-06-18 09:00:00 20.5 3 Norte 7 Norte 0 932.8 0.6 40
2019-06-18 08:00:00 16.9 4 Sudeste 7 Sudeste 0 932.7 0.9 49
2019-06-18 07:00:00 14.1 5 Sur 8 Sur 0 932.3 0.4 56
2019-06-18 06:00:00 14.8 4 Sudeste 15 Sur 0 932.2 0 55
2019-06-18 05:00:00 16.4 4 Sur 18 Sur 0 931.8 -0.4 53
2019-06-18 04:00:00 17.6 10 Sudoeste 22 Sudoeste 0 931.9 -0.2 48
2019-06-18 03:00:00 18.9 9 Sudoeste 17 Sudoeste 0 932.2 0.1 45
2019-06-18 02:00:00 20.3 10 Sudoeste 20 Sur 0 932.2 0.4 41
2019-06-18 01:00:00 21.5 8 Sudoeste 18 Sudoeste 0 932.1 0.9 40
2019-06-18 00:00:00 22.7 11 Sudoeste 28 Sudoeste 0 932.1 1.1 38
2019-06-17 23:00:00 24.4 15 Sudoeste 33 Sudoeste 0 931.8 1.2 34
2019-06-17 22:00:00 25.5 23 Sudoeste 39 Oeste 0 931.2 0.7 31
2019-06-17 21:00:00 27.9 24 Sudoeste 39 Oeste 0 931 0.1 22
2019-06-17 20:00:00 30.5 19 Sudoeste 30 Sudoeste 0 930.6 -0.9 19
2019-06-17 19:00:00 32.3 10 Oeste 55 Nordeste 0 930.5 -1.6 17
2019-06-17 18:00:00 32 11 Noroeste 41 Noroeste 0 930.9 -2 16
2019-06-17 17:00:00 31.3 13 Noroeste 36 Noroeste 0 931.5 -2.1 17
2019-06-17 16:00:00 30.8 13 Noroeste 30 Noroeste 0 932.1 -2.1 19
2019-06-17 15:00:00 29.8 15 Noroeste 44 Norte 0 932.9 -1.6 19
2019-06-17 14:00:00 28.9 12 Noroeste 23 Norte 0 933.6 -1.4 19
2019-06-17 13:00:00 28 8 Noroeste 15 Norte 0 934.2 -1 20
2019-06-17 12:00:00 26.1 9 Noroeste 18 Norte 0 934.5 -0.7 25
2019-06-17 11:00:00 23.5 9 Noroeste 23 Noroeste 0 935 0.1 31
2019-06-17 10:00:00 21 14 Noroeste 22 Noroeste 0 935.2 0.6 36
2019-06-17 09:00:00 17.9 2 Noroeste 9 Este 0 935.2 0.7 48
2019-06-17 08:00:00 13.9 6 Este 12 Este 0 934.9 0.6 67
2019-06-17 07:00:00 9.9 9 Este 14 Este 0 934.6 0.2 79
2019-06-17 06:00:00 10.8 6 Este 15 Este 0 934.5 0 76
2019-06-17 05:00:00 11.9 8 Este 15 Este 0 934.3 -0.3 76
2019-06-17 04:00:00 13.4 6 Este 11 Sur 0 934.4 -0.4 71
2019-06-17 03:00:00 15.6 9 Sudoeste 18 Sur 0 934.5 -0.4 68
2019-06-17 02:00:00 16.4 4 Sur 14 Sur 0 934.6 -0.1 65
2019-06-17 01:00:00 17.9 9 Sudoeste 21 Sudoeste 0 934.8 0.7 60
2019-06-17 00:00:00 19.3 12 Sudoeste 27 Sudoeste 0 934.9 1 55
2019-06-16 23:00:00 20.5 16 Sudoeste 33 Sudoeste 0 934.7 1.1 50
2019-06-16 22:00:00 21.7 18 Sudoeste 29 Sudoeste 0 934.1 0.6 45
2019-06-16 21:00:00 23.2 14 Sudoeste 27 Sur 0 933.9 0.4 38
2019-06-16 20:00:00 24.6 14 Sudoeste 27 Sudoeste 0 933.6 -0.2 27
2019-06-16 19:00:00 25.3 16 Sudoeste 33 Sudoeste 0 933.5 -0.4 24
2019-06-16 18:00:00 26.1 20 Sudoeste 36 Sudoeste 0 933.5 -1 22
2019-06-16 17:00:00 26.8 13 Sudoeste 30 Sur 0 933.8 -1.3 22
2019-06-16 16:00:00 27.6 12 Sur 26 Sudoeste 0 933.9 -1.6 22
2019-06-16 15:00:00 26.3 16 Sur 36 Sur 0 934.5 -1.4 24
2019-06-16 14:00:00 25.8 22 Sudoeste 41 Sudoeste 0 935.1 -0.9 25
2019-06-16 13:00:00 24.5 20 Sudoeste 37 Sudoeste 0 935.5 -0.6 33
2019-06-16 12:00:00 23.3 18 Sudoeste 40 Sudoeste 0 935.9 0.1 37
2019-06-16 11:00:00 20.8 17 Sur 36 Sudoeste 0 936 0.4 45
2019-06-16 10:00:00 19.1 18 Sur 36 Sur 0 936.1 1 49
2019-06-16 09:00:00 17.5 18 Sur 36 Sur 0 935.8 1 49
2019-06-16 08:00:00 15.6 20 Sur 35 Sur 0 935.6 0.9 48
2019-06-16 07:00:00 14 17 Sur 31 Sur 0 935.1 -0.1 52
2019-06-16 06:00:00 14.1 13 Sur 20 Sur 0 934.8 -0.7 52
2019-06-16 05:00:00 11.9 10 Sudeste 14 Sudeste 0 934.7 -0.9 57
2019-06-16 04:00:00 10.8 10 Este 15 Este 0 935.2 -0.7 43
2019-06-16 03:00:00 12.3 9 Este 15 Este 0 935.5 -0.3 40
2019-06-16 02:00:00 11.8 10 Este 13 Este 0 935.6 0.3 41
2019-06-16 01:00:00 13.3 6 Este 8 Este 0 935.9 1.3 37
2019-06-16 00:00:00 15 5 Sur 12 Sur 0 935.8 1.5 35
2019-06-15 23:00:00 17.8 7 Este 14 Nordeste 0 935.3 1.1 29
2019-06-15 22:00:00 19.9 11 Nordeste 14 Nordeste 0 934.6 0.7 26
2019-06-15 21:00:00 23.2 12 Nordeste 25 Norte 0 934.3 0.2 21
2019-06-15 20:00:00 24.7 13 Norte 28 Norte 0 934.2 -0.3 18
2019-06-15 19:00:00 25.2 17 Norte 33 Noroeste 0 933.9 -0.9 17
2019-06-15 18:00:00 25.2 12 Norte 29 Norte 0 934.1 -1.1 20
2019-06-15 17:00:00 24.2 13 Nordeste 49 Norte 0 934.5 -1.2 21
2019-06-15 16:00:00 24.5 15 Norte 31 Oeste 0 934.8 -1.3 22
2019-06-15 15:00:00 22.8 17 Norte 33 Norte 0 935.2 -0.9 24
2019-06-15 14:00:00 21.9 15 Norte 32 Noroeste 0 935.7 -0.4 29
2019-06-15 13:00:00 21 19 Noroeste -- -- 0 936.1 0.1 31
2019-06-15 12:00:00 19.1 13 Norte 32 Norte 0 936.1 0.2 35
2019-06-15 11:00:00 17.9 14 Norte 27 Norte 0 936.1 0.6 39
2019-06-15 10:00:00 15.9 12 Norte 22 Norte 0 936 0.8 46
2019-06-15 09:00:00 13.8 11 Norte 19 Norte 0 935.9 1.3 50
2019-06-15 08:00:00 10.9 10 Norte 14 Norte 0 935.5 1.1 55
2019-06-15 07:00:00 9 10 Nordeste 12 Norte 0 935.2 0.9 60
2019-06-15 06:00:00 9.4 10 Norte 12 Nordeste 0 934.6 0.2 58
2019-06-15 05:00:00 9.5 9 Nordeste 12 Nordeste 0 934.4 0.3 57
2019-06-15 04:00:00 10.2 9 Norte 13 Norte 0 934.3 0.3 54
2019-06-15 03:00:00 11.3 8 Nordeste 13 Norte 0 934.4 0.9 52
2019-06-15 02:00:00 12.5 9 Norte 15 Norte 0 934.1 1.2 46
2019-06-15 01:00:00 13.8 2 Nordeste 13 Norte 0 934 2.5 42
2019-06-15 00:00:00 15.6 9 Norte 27 Norte 0 933.5 2.8 38
2019-06-14 23:00:00 17.5 18 Norte 32 Norte 0 932.9 2.9 34
2019-06-14 22:00:00 19.8 15 Norte 33 Norte 0 931.5 2 30
2019-06-14 21:00:00 22.1 23 Norte 39 Noroeste 0 930.7 1.1 27
2019-06-14 20:00:00 24.6 28 Norte 44 Norte 0 930 0.6 23
2019-06-14 19:00:00 26.1 27 Norte -- -- 0 929.5 0 21
2019-06-14 18:00:00 26.1 -- -- -- -- 0 929.6 0.3 23
2019-06-14 17:00:00 26.3 28 Noroeste 55 Noroeste 0 929.4 -0.3 23
2019-06-14 16:00:00 26.6 31 Noroeste 50 Noroeste 0 929.5 -0.4 20
2019-06-14 15:00:00 26 24 Noroeste 50 Noroeste 0 929.3 -0.4 24
2019-06-14 14:00:00 25.3 24 Noroeste 44 Norte 0 929.7 -0.1 29
2019-06-14 13:00:00 24.1 23 Norte 39 Noroeste 0 929.9 0.2 28
2019-06-14 12:00:00 22.7 20 Norte 39 Norte 0 929.7 0.2 32
2019-06-14 11:00:00 21.3 18 Norte 34 Norte 0 929.8 0.9 33
2019-06-14 10:00:00 19.1 16 Norte 25 Norte 0 929.7 1.4 41
2019-06-14 09:00:00 16.9 10 Norte 16 Norte 0 929.5 2 43
2019-06-14 08:00:00 15.8 12 Norte 17 Norte 0 928.9 1.8 54
2019-06-14 07:00:00 15.7 6 Oeste 21 Norte 0 928.3 0.8 72
2019-06-14 06:00:00 15.1 6 Oeste 13 Sudoeste 0 927.5 0 67
2019-06-14 05:00:00 14.7 8 Sudoeste 21 Sudoeste 0 927.1 -0.8 71
2019-06-14 04:00:00 15.4 10 Sudoeste 22 Sudoeste 0 927.5 -0.8 68
2019-06-14 03:00:00 15.6 12 Sur 23 Sudoeste 0 927.5 -0.9 67
2019-06-14 02:00:00 16.1 12 Sur 28 Sudoeste 0 927.9 -0.1 67
2019-06-14 01:00:00 16.8 15 Sur -- -- 0 928.3 1.3 65
2019-06-14 00:00:00 17.3 21 Sur 40 Sudoeste 0 928.4 1.8 63
2019-06-13 23:00:00 18.2 17 Sur 35 Sur 0 928 1.8 62
2019-06-13 22:00:00 19.5 -- -- -- -- 0 927 1.3 56
2019-06-13 21:00:00 21.1 -- -- -- -- 0 926.6 0.5 52
2019-06-13 20:00:00 23 -- -- -- -- 0 926.2 -0.3 47
2019-06-13 19:00:00 24.4 -- -- -- -- 0 925.7 -1.3 41
2019-06-13 18:00:00 25.3 9 Sudoeste 28 Sur 0 926.1 -1.5 37
2019-06-13 17:00:00 25 10 Sur 27 Sudeste 0 926.5 -1.5 38
2019-06-13 16:00:00 23.8 11 Sudoeste 29 Sur 0 927 -1.4 41
2019-06-13 15:00:00 22 14 Sudoeste -- -- 0 927.6 -1.6 45
2019-06-13 14:00:00 22.8 18 Sudoeste -- -- 0 928 -1.4 44
2019-06-13 13:00:00 21.5 17 Sudoeste -- -- 0 928.4 -0.8 48
2019-06-13 12:00:00 20.3 19 Sudoeste -- -- 0 929.2 0.1 52
2019-06-13 11:00:00 19.6 -- -- -- -- 0 929.4 0.7 57
2019-06-13 10:00:00 18.4 -- -- -- -- 0 929.2 0.7 59
2019-06-13 09:00:00 16.8 -- -- -- -- 0 929.1 0.8 65
2019-06-13 08:00:00 15.2 -- -- -- -- 0 928.7 0.6 72
2019-06-13 07:00:00 13.9 16 Sudoeste -- -- 0 928.5 0.4 76
2019-06-13 06:00:00 13.9 -- -- -- -- 0 928.3 0 76
2019-06-13 05:00:00 14.1 -- -- -- -- 0 928.1 -0.2 75
2019-06-13 04:00:00 13.9 24 Sur -- -- 0 928.1 -0.6 78
2019-06-13 03:00:00 13.9 -- -- -- -- 0 928.3 -0.2 80
2019-06-13 02:00:00 13.3 -- -- -- -- 0 928.3 0 79
2019-06-13 01:00:00 13.7 -- -- -- -- 0 928.7 1.1 69
2019-06-13 00:00:00 15.4 -- -- -- -- 0 928.5 1.3 55
2019-06-12 23:00:00 17.4 -- -- -- -- 0 928.3 1.5 53
2019-06-12 22:00:00 19 -- -- -- -- 0 927.6 0.9 48
2019-06-12 21:00:00 21.7 23 Sudoeste 42 Sudoeste 0 927.2 0.2 38
2019-06-12 20:00:00 23.9 16 Sudoeste 32 Oeste 0 926.8 -1.2 30
2019-06-12 19:00:00 26.4 11 Noroeste 30 Noroeste 0 926.7 -1.5 18
2019-06-12 18:00:00 25.7 17 Norte 40 Noroeste 0 927 -1.6 17
2019-06-12 17:00:00 25.8 17 Noroeste 36 Noroeste 0 928 -1.4 18
2019-06-12 16:00:00 24.4 14 Noroeste 32 Oeste 0 928.2 -1.8 28
2019-06-12 15:00:00 24.2 12 Oeste -- -- 0 928.6 -2 31
2019-06-12 14:00:00 22.2 8 Oeste -- -- 0 929.4 -1.4 33
2019-06-12 13:00:00 20.5 12 Sudoeste -- -- 0 930 -1 38
2019-06-12 12:00:00 18.7 18 Sudoeste 34 Sudoeste 0 930.6 -0.5 43
2019-06-12 11:00:00 17.9 17 Sur 33 Sur 0 930.8 -0.2 35
2019-06-12 10:00:00 15.4 17 Sur -- -- -- 931 0.2 46
2019-06-12 09:00:00 13.6 -- -- -- -- 0 931.1 0.7 54
2019-06-12 08:00:00 11 8 Sur 15 Sur 0 931 0.7 60
2019-06-12 07:00:00 6.1 5 Sudeste 9 Sudeste 0 930.8 0.4 69
2019-06-12 06:00:00 6.3 5 Sudeste 9 Este 0 930.4 -0.1 72
2019-06-12 05:00:00 6.9 7 Este 15 Este 0 930.3 -0.4 72
2019-06-12 04:00:00 7.9 8 Este 17 Este 0 930.4 -0.6 74
2019-06-12 03:00:00 10 9 Sudeste 13 Sur 0 930.5 -0.4 76
2019-06-12 02:00:00 10.9 10 Sur 14 Sudeste 0 930.7 -0.2 73
2019-06-12 01:00:00 12.1 10 Sur 17 Sudoeste 0 931 1 68
2019-06-12 00:00:00 13.5 9 Sudoeste 24 Sur 0 930.9 1.4 63
2019-06-11 23:00:00 12.8 8 Sur 16 Este 0 930.9 2.1 40
2019-06-11 22:00:00 16 10 Este 23 Este 0 930 1.6 34
2019-06-11 21:00:00 18.8 16 Este -- -- 0 929.5 1.2 26
2019-06-11 20:00:00 19.5 23 Nordeste 37 Nordeste 0 928.8 0.8 26
2019-06-11 19:00:00 20.3 17 Nordeste 39 Nordeste 0 928.4 0.6 27
2019-06-11 18:00:00 20.9 23 Nordeste 44 Nordeste 0 928.3 0.9 27
2019-06-11 17:00:00 21.2 27 Nordeste 48 Nordeste 0 928 1 30
2019-06-11 16:00:00 22.2 30 Nordeste -- -- 0 927.8 0.9 29
2019-06-11 15:00:00 22.4 -- -- -- -- 0 927.4 0.3 31
2019-06-11 14:00:00 21.8 21 Norte -- -- 0 927 -0.4 30
2019-06-11 13:00:00 22 -- -- -- -- 0 926.9 -0.1 28
2019-06-11 12:00:00 20.5 12 Norte 30 Norte 0 927.1 -0.4 29
2019-06-11 11:00:00 19.2 17 Norte 29 Norte 0 927.4 -0.1 32
2019-06-11 10:00:00 18.5 17 Norte 29 Norte 0 927 -0.4 34
2019-06-11 09:00:00 14.3 10 Norte 15 Norte 0 927.5 0.2 42
2019-06-11 08:00:00 11.1 2 Norte 5 Norte 0 927.5 0 49
2019-06-11 07:00:00 9.9 7 Noroeste 16 Norte 0 927.4 -0.3 51
2019-06-11 06:00:00 10.6 14 Norte 17 Norte 0 927.3 -0.9 50
2019-06-11 05:00:00 11 10 Norte 15 Norte 0 927.5 -1.1 51
2019-06-11 04:00:00 12.1 13 Norte 16 Norte 0 927.7 -1.3 47
2019-06-11 03:00:00 13.3 12 Norte 14 Norte 0 928.2 -1 44
2019-06-11 02:00:00 13.8 10 Norte 17 Norte 0 928.6 -0.8 42
2019-06-11 01:00:00 14.9 -- -- -- -- 0 929 0 37
2019-06-11 00:00:00 15.6 2 Este 6 Oeste 0 929.2 0.3 34
2019-06-10 23:00:00 17.4 2 Sudeste 10 Este 0 929.4 0.4 30
2019-06-10 22:00:00 20.6 7 Nordeste 18 Nordeste 0 929 -0.3 24
2019-06-10 21:00:00 23.7 15 Nordeste 28 Nordeste 0 928.9 -0.7 20
2019-06-10 20:00:00 25.2 21 Nordeste 35 Nordeste 0 929 -0.8 19
2019-06-10 19:00:00 25.9 20 Norte 34 Norte 0 929.3 -1 19
2019-06-10 18:00:00 25.9 18 Norte 36 Norte 0 929.6 -1.3 19
2019-06-10 17:00:00 25.9 18 Norte 38 Norte 0 929.8 -1.8 21
2019-06-10 16:00:00 25.7 19 Norte 36 Norte 0 930.3 -1.7 21
2019-06-10 15:00:00 25 15 Norte 35 Norte 0 930.9 -1.5 24
2019-06-10 14:00:00 24.3 18 Noroeste 40 Noroeste 0 931.6 -1 25
2019-06-10 13:00:00 23.3 19 Norte 31 Norte 0 932 -0.6 24
2019-06-10 12:00:00 21.9 15 Nordeste 29 Norte 0 932.4 -0.3 28
2019-06-10 11:00:00 20.7 12 Noroeste 22 Noroeste 0 932.6 -0.2 36
2019-06-10 10:00:00 18.5 11 Noroeste 19 Noroeste 0 932.6 0.3 39
2019-06-10 09:00:00 15.6 11 Noroeste 18 Norte 0 932.7 0.8 44
2019-06-10 08:00:00 11.8 12 Norte -- -- 0 932.8 0.7 50
2019-06-10 07:00:00 9.3 4 Este 12 Norte 0 932.3 -0.2 51
2019-06-10 06:00:00 9.5 10 Norte 21 Norte 0 931.9 -0.7 51
2019-06-10 05:00:00 10.5 18 Norte 20 Norte 0 932.1 -0.5 47
2019-06-10 04:00:00 11.4 13 Norte 18 Noroeste 0 932.5 -0.3 42
2019-06-10 03:00:00 12.9 10 Norte 13 Noroeste 0 932.6 0 37
2019-06-10 02:00:00 14 7 Norte 12 Norte 0 932.6 0.2 34
2019-06-10 01:00:00 14.4 10 Norte 13 Nordeste 0 932.8 1.2 34
2019-06-10 00:00:00 16.4 10 Norte 13 Nordeste 0 932.6 1.5 29
2019-06-09 23:00:00 18 11 Norte 18 Norte 0 932.4 1.7 25
2019-06-09 22:00:00 21.1 13 Norte 26 Norte 0 931.6 1 21
2019-06-09 21:00:00 24.2 20 Norte 34 Norte 0 931.1 0.3 19
2019-06-09 20:00:00 26 23 Norte 42 Noroeste 0 930.7 -0.2 20
2019-06-09 19:00:00 26.9 26 Norte 42 Norte 0 930.6 -0.8 19
2019-06-09 18:00:00 27.4 25 Norte 43 Noroeste 0 930.8 -1.2 18
2019-06-09 17:00:00 27.8 24 Noroeste 40 Noroeste 0 930.9 -1.6 20
2019-06-09 16:00:00 27.8 23 Noroeste 43 Norte 0 931.4 -1.7 21
2019-06-09 15:00:00 26.4 21 Norte 39 Norte 0 932 -1.6 20
2019-06-09 14:00:00 25.4 20 Norte 39 Norte 0 932.5 -1.2 22
2019-06-09 13:00:00 24.6 18 Norte 32 Norte 0 933.1 -0.8 22
2019-06-09 12:00:00 23.4 17 Norte 30 Norte 0 933.6 -0.4 26
2019-06-09 11:00:00 22.3 15 Noroeste 28 Norte 0 933.7 -0.1 30
2019-06-09 10:00:00 19.7 17 Noroeste 26 Noroeste 0 933.9 0.1 44
2019-06-09 09:00:00 16.7 5 Sudoeste 13 Sudoeste 0 934 0.7 57
2019-06-09 08:00:00 13.2 4 Sudeste 9 Sudoeste 0 933.8 -0.1 68
2019-06-09 07:00:00 13.3 6 Sur 15 Sudoeste 0 933.8 0 67
2019-06-09 06:00:00 14 8 Sur 20 Sur 0 933.3 -0.6 64
2019-06-09 05:00:00 14.2 7 Sudoeste 26 Sur 0 933.9 -0.8 62
2019-06-09 04:00:00 15.1 14 Sudoeste 30 Sur 0 933.8 -1.2 60
2019-06-09 03:00:00 15.4 14 Sur 29 Sur 0 933.9 -1.4 59
2019-06-09 02:00:00 15.5 15 Sudoeste 30 Sudoeste 0 934.7 -0.7 57
2019-06-09 01:00:00 15.6 14 Sur -- -- 0 935 0.3 56
2019-06-09 00:00:00 16.1 17 Sur 34 Sudoeste 0 935.3 1 54
2019-06-08 23:00:00 16.6 16 Sur 40 Sur 0 935.4 1.4 54
2019-06-08 22:00:00 17.5 19 Sur 41 Sur 0 934.7 1.1 55
2019-06-08 21:00:00 18.9 24 Sur 50 Sur 0 934.3 0.5 52
2019-06-08 20:00:00 21.1 27 Sur 50 Sur 0 934 0.1 46
2019-06-08 19:00:00 23.2 23 Sur 46 Sur 0 933.6 -0.9 43
2019-06-08 18:00:00 24.2 24 Sur 54 Sur 0 933.8 -1.3 40
2019-06-08 17:00:00 24.1 26 Sur 51 Sur 0 933.9 -2 41
2019-06-08 16:00:00 23.4 28 Sur 52 Sur 0 934.5 -1.8 42
2019-06-08 15:00:00 23.4 26 Sudoeste 50 Sudoeste 0 935.1 -1.6 42
2019-06-08 14:00:00 23.6 23 Sudoeste 52 Sudoeste 0 935.9 -0.9 42
2019-06-08 13:00:00 22.5 24 Sudoeste 58 Sur 0 936.3 -0.5 46
2019-06-08 12:00:00 20.7 26 Sudoeste 49 Sudoeste 0 936.7 0.2 50
2019-06-08 11:00:00 19 27 Sur 48 Sudoeste 0 936.8 0.5 54
2019-06-08 10:00:00 18.2 28 Sur 52 Sur 0 936.8 0.7 58
2019-06-08 09:00:00 17.1 28 Sur 48 Sur 0 936.5 0.5 61
2019-06-08 08:00:00 15.2 18 Sur 36 Sur 0 936.3 0.5 61
2019-06-08 07:00:00 12.8 13 Sur 20 Sur 0 936.1 0.2 55
2019-06-08 06:00:00 13.7 13 Sur 24 Sur 0 936 0.1 50
2019-06-08 05:00:00 11 7 Este 16 Este 0 935.8 -0.2 47
2019-06-08 04:00:00 9.9 10 Este 18 Este 0 935.9 -0.1 43
2019-06-08 03:00:00 10.3 11 Sudeste 17 Este 0 935.9 0 40
2019-06-08 02:00:00 10.1 11 Este 17 Este 0 936 0.3 41
2019-06-08 01:00:00 11 10 Este 16 Este 0 936 1.2 37
2019-06-08 00:00:00 11.4 12 Este 15 Este 0 935.9 1.7 34
2019-06-07 23:00:00 13.7 9 Sudeste 15 Este 0 935.7 1.8 29
2019-06-07 22:00:00 16.8 9 Este 19 Este 0 934.8 1.1 24
2019-06-07 21:00:00 20.5 13 Este 23 Nordeste 0 934.2 0.7 19
2019-06-07 20:00:00 22.6 9 Nordeste 25 Nordeste 0 933.9 0.3 18
2019-06-07 19:00:00 22.9 12 Nordeste 31 Norte 0 933.7 0.2 19
2019-06-07 18:00:00 22.8 11 Norte 35 Nordeste 0 933.5 0.1 19
2019-06-07 17:00:00 22 17 Norte 35 Norte 0 933.6 0.1 20
2019-06-07 16:00:00 21.6 17 Norte 40 Nordeste 0 933.5 0.3 22
2019-06-07 15:00:00 20.8 20 Norte 40 Nordeste 0 933.4 0.4 25
2019-06-07 14:00:00 19 20 Norte 37 Norte 0 933.5 0.9 34
2019-06-07 13:00:00 18 24 Norte 40 Norte 0 933.2 1.2 40
2019-06-07 12:00:00 15.9 19 Norte 38 Norte 0 933 1.9 49
2019-06-07 11:00:00 15.1 22 Norte 36 Norte 0 932.6 2.2 55
2019-06-07 10:00:00 13.2 27 Nordeste 38 Nordeste 0 932 2.5 70
2019-06-07 09:00:00 13.6 19 Norte 40 Noroeste 0 931.1 2.1 81
2019-06-07 08:00:00 14.2 25 Noroeste 41 Noroeste 0 930.4 1.9 63
2019-06-07 07:00:00 14.5 20 Noroeste 29 Noroeste 0 929.5 1.2 53
2019-06-07 06:00:00 13.6 16 Noroeste 24 Noroeste 0 929 1 47
2019-06-07 05:00:00 12.7 10 Noroeste 13 Oeste 0 928.5 0.7 36
2019-06-07 04:00:00 13.3 7 Noroeste 19 Oeste 0 928.3 0.6 34
2019-06-07 03:00:00 15.5 12 Oeste 28 Oeste 0 928 0.5 31
2019-06-07 02:00:00 16.9 18 Oeste 28 Oeste 0 927.8 0.8 29
2019-06-07 01:00:00 18.2 15 Oeste 31 Noroeste 0 927.7 1.1 23
2019-06-07 00:00:00 19.4 20 Noroeste 36 Noroeste 0 927.5 1.3 18
2019-06-06 23:00:00 20.3 20 Noroeste 33 Noroeste 0 927 1.1 15
2019-06-06 22:00:00 21.1 12 Noroeste 30 Noroeste 0 926.6 0.8 16
2019-06-06 21:00:00 23.6 25 Noroeste 43 Noroeste 0 926.2 0 12
2019-06-06 20:00:00 25.8 27 Noroeste 49 Noroeste 0 925.9 -0.9 12
2019-06-06 19:00:00 26.7 29 Noroeste 50 Noroeste 0 925.8 -1.9 12
2019-06-06 18:00:00 27 26 Noroeste 48 Noroeste 0 926.2 -2 14
2019-06-06 17:00:00 27.3 24 Noroeste 54 Noroeste 0 926.8 -2.2 13
2019-06-06 16:00:00 26.6 23 Oeste 46 Oeste 0 927.7 -2.3 15
2019-06-06 15:00:00 25.2 18 Oeste 44 Oeste 0 928.2 -2.2 21
2019-06-06 14:00:00 23.9 13 Oeste 27 Oeste 0 929 -1.7 22
2019-06-06 13:00:00 21.7 12 Sudoeste 22 Noroeste 0 930 -1 27
2019-06-06 12:00:00 20 12 Noroeste 28 Oeste 0 930.4 -0.8 29
2019-06-06 11:00:00 18.9 7 Oeste 18 Oeste 0 930.7 -0.4 31
2019-06-06 10:00:00 16.8 3 Oeste 10 Norte 0 931 -0.3 35
2019-06-06 09:00:00 13.5 6 Noroeste 9 Noroeste 0 931.2 0.2 43
2019-06-06 08:00:00 10.5 2 Sudeste 4 Sudeste 0 931.1 0.3 50
2019-06-06 07:00:00 6.1 3 Este 8 Este 0 931.3 0.7 60
2019-06-06 06:00:00 6.1 4 Sudeste -- -- 0 931 0.2 60
2019-06-06 05:00:00 7.6 -- -- -- -- 0 930.8 -0.1 55
2019-06-06 04:00:00 9 5 Nordeste 9 Norte 0 930.6 -0.3 50
2019-06-06 03:00:00 10.6 9 Norte 11 Norte 0 930.8 0 44
2019-06-06 02:00:00 11.3 9 Norte 12 Norte 0 930.9 0.4 42
2019-06-06 01:00:00 11.8 8 Norte 11 Norte 0 930.9 1.2 39
2019-06-06 00:00:00 12.9 7 Norte 10 Noroeste 0 930.8 1.4 36
2019-06-05 23:00:00 14.1 7 Noroeste 20 Noroeste 0 930.5 1.3 33
2019-06-05 22:00:00 15.9 10 Nordeste 13 Nordeste 0 929.7 0.8 28
2019-06-05 21:00:00 18.8 10 Norte 28 Nordeste 0 929.4 0.5 23
2019-06-05 20:00:00 19.7 20 Nordeste 33 Norte 0 929.2 0.3 23
2019-06-05 19:00:00 20.4 22 Norte 37 Norte 0 928.9 -0.2 24
2019-06-05 18:00:00 20.4 26 Nordeste 42 Nordeste 0 928.9 0.1 24
2019-06-05 17:00:00 20.5 28 Norte 49 Nordeste 0 928.9 0.2 23
2019-06-05 16:00:00 20.9 27 Norte 51 Norte 0 929.1 0.3 24
2019-06-05 15:00:00 20.5 30 Norte 66 Nordeste 0 928.8 0 25
2019-06-05 14:00:00 19.8 33 Norte 56 Norte 0 928.7 -0.1 27
2019-06-05 13:00:00 18.7 28 Norte 55 Norte 0 928.8 0.3 34
2019-06-05 12:00:00 16.6 28 Norte 46 Norte 0 928.8 1 38
2019-06-05 11:00:00 15.3 26 Norte 53 Norte 0 928.8 1.5 47
2019-06-05 10:00:00 13.8 34 Norte 51 Norte 0 928.5 2 52
2019-06-05 09:00:00 13.6 33 Norte 53 Noroeste 0 927.8 1.8 54
2019-06-05 08:00:00 13.4 28 Norte 50 Norte 0 927.3 1.8 56
2019-06-05 07:00:00 14.5 28 Norte 42 Norte 0 926.5 1.1 59
2019-06-05 06:00:00 16.1 25 Norte 52 Noroeste 0 926 0.2 58
2019-06-05 05:00:00 17.2 30 Norte 46 Noroeste 0 925.5 -0.5 59
2019-06-05 04:00:00 16.6 3 Norte 7 Norte 0 925.4 -0.7 54
2019-06-05 03:00:00 16.8 4 Noroeste 11 Norte 0 925.8 -0.4 53
2019-06-05 02:00:00 17.3 9 Norte 14 Norte 0 926 0.2 51
2019-06-05 01:00:00 18.2 8 Norte 12 Norte 0 926.1 0.9 46
2019-06-05 00:00:00 19.8 9 Norte 23 Nordeste 0 926.2 1.1 39
2019-06-04 23:00:00 23.3 10 Norte 30 Noroeste 0 925.8 0.6 32
2019-06-04 22:00:00 24.4 9 Noroeste 30 Norte 0 925.2 -0.2 32
2019-06-04 21:00:00 26.7 17 Norte 33 Norte 0 925.1 -0.8 28
2019-06-04 20:00:00 28.7 19 Norte 41 Norte 0 925.2 -1.1 24
2019-06-04 19:00:00 29.2 23 Norte 48 Noroeste 0 925.4 -1.6 16
2019-06-04 18:00:00 30.4 27 Noroeste 45 Noroeste 0 925.9 -1.9 15
2019-06-04 17:00:00 31.3 30 Noroeste 56 Norte 0 926.3 -2.2 15
2019-06-04 16:00:00 31.3 25 Noroeste 45 Oeste 0 927 -2.3 16
2019-06-04 15:00:00 30.8 22 Noroeste 42 Noroeste 0 927.8 -2 18
2019-06-04 14:00:00 30.2 25 Noroeste 49 Norte 0 928.5 -1.3 18
2019-06-04 13:00:00 29 27 Norte 44 Norte 0 929.3 -1.1 20
2019-06-04 12:00:00 28 22 Norte 35 Noroeste 0 929.8 -0.7 23
2019-06-04 11:00:00 26 12 Norte 21 Noroeste 0 929.8 -0.5 30
2019-06-04 10:00:00 23.2 5 Noroeste 13 Noroeste 0 930.4 0.2 34
2019-06-04 09:00:00 20 4 Sudeste 10 Sudeste 0 930.5 0.4 38
2019-06-04 08:00:00 15.7 4 Este 10 Este 0 930.3 0.4 57
2019-06-04 07:00:00 12.7 7 Este -- -- 0 930.2 0.1 66
2019-06-04 06:00:00 12.9 4 Sudeste 14 Norte 0 930.1 -0.4 64
2019-06-04 05:00:00 13.2 6 Nordeste 9 Nordeste 0 929.9 -0.9 64
2019-06-04 04:00:00 15.4 3 Nordeste 8 Este 0 930.1 -1.1 58
2019-06-04 03:00:00 17.1 4 Sur 11 Sur 0 930.5 -0.7 55
2019-06-04 02:00:00 18.9 6 Sur 16 Sudoeste 0 930.8 -0.3 51
2019-06-04 01:00:00 20.3 8 Sudoeste 15 Sudoeste 0 931.2 0.2 46
2019-06-04 00:00:00 21.9 12 Sudoeste 19 Sudoeste 0 931.2 0.5 38
2019-06-03 23:00:00 23.5 11 Sudoeste 18 Sudoeste 0 931.1 0.6 34
2019-06-03 22:00:00 26 7 Sudoeste 30 Sudoeste 0 931 0.2 28
2019-06-03 21:00:00 29 14 Sudoeste 28 Sudoeste 0 930.7 -0.6 23
2019-06-03 20:00:00 32.2 12 Noroeste 27 Norte 0 930.5 -1.3 14
2019-06-03 19:00:00 32.6 19 Norte 37 Norte 0 930.8 -1.5 13
2019-06-03 18:00:00 33.7 11 Noroeste 34 Norte 0 931.3 -1.4 13
2019-06-03 17:00:00 33.3 19 Noroeste 38 Oeste 0 931.8 -1.5 13
2019-06-03 16:00:00 32.9 19 Norte 32 Noroeste 0 932.3 -1.6 14
2019-06-03 15:00:00 32.6 10 Noroeste 30 Norte 0 932.7 -1.7 15
2019-06-03 14:00:00 31.8 10 Noroeste 25 Norte 0 933.3 -1.2 18
2019-06-03 13:00:00 30.3 8 Nordeste 24 Nordeste 0 933.9 -0.7 18
2019-06-03 12:00:00 28 9 Norte 19 Norte 0 934.4 -0.2 23
2019-06-03 11:00:00 25.6 8 Norte 17 Noroeste 0 934.5 0.1 26
2019-06-03 10:00:00 23.2 5 Sudoeste 17 Sudoeste 0 934.6 0.3 29
2019-06-03 09:00:00 20.6 9 Sudoeste 14 Sudoeste 0 934.6 0.6 33
2019-06-03 08:00:00 17.1 6 Sur 11 Sur 0 934.4 0.6 40
2019-06-03 07:00:00 15.3 5 Sur 11 Sudoeste 0 934.3 0.3 44
2019-06-03 06:00:00 15.8 8 Sur 18 Sudoeste 0 934 -0.4 41
2019-06-03 05:00:00 16.4 8 Sur 15 Sur 0 933.8 -0.9 41
2019-06-03 04:00:00 17.4 10 Sur 18 Sur 0 934 -0.2 40
2019-06-03 03:00:00 17.5 8 Sur 20 Sur 0 934.4 0 40
2019-06-03 02:00:00 19.1 6 Sudoeste 31 Sur 0 934.7 0.7 36
2019-06-03 01:00:00 20.2 16 Sur 31 Sur 0 934.2 0.9 33
2019-06-03 00:00:00 21.6 14 Sur 27 Sudoeste 0 934.4 1.4 31
2019-06-02 23:00:00 23.2 13 Sudoeste 21 Sudoeste 0 934 1 31
2019-06-02 22:00:00 25.7 10 Sudoeste 19 Oeste 0 933.3 0.3 26
2019-06-02 21:00:00 28.4 12 Oeste 28 Oeste 0 933 -0.3 21
2019-06-02 20:00:00 31 12 Oeste 22 Oeste 0 933 -0.5 17
2019-06-02 19:00:00 32.4 5 Sudoeste 20 Noroeste 0 933 -0.9 15
2019-06-02 18:00:00 32.6 10 Noroeste 30 Oeste 0 933.3 -1.2 15
2019-06-02 17:00:00 32.2 9 Sudoeste 18 Oeste 0 933.5 -1.9 16
2019-06-02 16:00:00 31.7 5 Norte 20 Oeste 0 933.9 -2.2 17
2019-06-02 15:00:00 30.8 7 Norte 21 Oeste 0 934.5 -1.9 19
2019-06-02 14:00:00 29.9 7 Oeste 17 Sudoeste 0 935.4 -1.2 21
2019-06-02 13:00:00 28.3 5 Oeste 17 Sudoeste 0 936.1 -0.5 22
2019-06-02 12:00:00 26.2 10 Sudoeste 21 Sur 0 936.4 -0.2 23
2019-06-02 11:00:00 23.3 11 Sudoeste 24 Sur 0 936.6 0 28
2019-06-02 10:00:00 20.9 13 Sudoeste 20 Sur 0 936.6 0.2 32
2019-06-02 09:00:00 18.6 12 Sudoeste 22 Sur 0 936.6 0.3 34
2019-06-02 08:00:00 15 10 Sudeste 15 Sudeste 0 936.6 0.5 44
2019-06-02 07:00:00 12 8 Sudeste 11 Sudeste 0 936.4 0 50
2019-06-02 06:00:00 13.3 7 Sudeste 18 Sudeste 0 936.3 -0.3 44
2019-06-02 05:00:00 14.1 11 Sur 19 Sur 0 936.1 -0.6 43
2019-06-02 04:00:00 15.3 13 Sur 22 Sur 0 936.4 -0.5 41
2019-06-02 03:00:00 15.9 13 Sur 26 Sudoeste 0 936.6 -0.2 42
2019-06-02 02:00:00 17.3 13 Sur 28 Sur 0 936.7 0.4 39
2019-06-02 01:00:00 18.3 13 Sur 28 Sur 0 936.9 1.4 40
2019-06-02 00:00:00 19.9 13 Sur 23 Sur 0 936.8 1.7 37
2019-06-01 23:00:00 21.4 10 Sur 18 Sur 0 936.3 1.4 34
2019-06-01 22:00:00 23.8 9 Sudoeste 21 Sudoeste 0 935.5 0.7 29
2019-06-01 21:00:00 26.5 14 Sudoeste 29 Sudoeste 0 935.1 -0.2 25
2019-06-01 20:00:00 28.8 18 Oeste 24 Oeste 0 934.9 -0.7 21
2019-06-01 19:00:00 29.1 14 Sudoeste 27 Sudoeste 0 934.8 -1.4 18
2019-06-01 18:00:00 29.2 11 Sudoeste 30 Sur 0 935.3 -1.2 18
2019-06-01 17:00:00 29.4 17 Sur 33 Sur 0 935.6 -1.6 18
2019-06-01 16:00:00 29.3 14 Sudoeste 30 Sudoeste 0 936.2 -1.7 17
2019-06-01 15:00:00 29 12 Sudoeste 30 Sudoeste 0 936.5 -2 20
2019-06-01 14:00:00 27.6 13 Sudoeste 27 Sudoeste 0 937.2 -1.4 25
2019-06-01 13:00:00 26.7 12 Sudoeste 30 Sudoeste 0 937.9 -0.9 27
2019-06-01 12:00:00 24.7 10 Sur 21 Sur 0 938.5 -0.3 31
2019-06-01 11:00:00 22.6 10 Sudoeste 23 Sudoeste 0 938.6 -0.3 38
2019-06-01 10:00:00 20.7 10 Sudoeste 20 Sudoeste 0 938.8 0.2 43
2019-06-01 09:00:00 18.6 9 Sur 21 Sur 0 938.8 0.5 47
2019-06-01 08:00:00 15.4 10 Sur 14 Sur 0 938.9 0.6 56
2019-06-01 07:00:00 11.3 9 Este 13 Este 0 938.6 0.2 68
2019-06-01 06:00:00 12.1 10 Sudeste 14 Sudeste 0 938.3 -0.2 65
2019-06-01 05:00:00 12.6 8 Sudeste 13 Sudeste 0 938.3 -0.4 63
2019-06-01 04:00:00 13.6 10 Sudeste 20 Sur 0 938.4 -0.5 59
2019-06-01 03:00:00 14.7 12 Sur 23 Sur 0 938.5 -0.3 56
2019-06-01 02:00:00 16.1 13 Sur 35 Sur 0 938.7 0.4 52
2019-06-01 01:00:00 16.9 14 Sur 32 Sur 0 938.9 1.4 49
2019-06-01 00:00:00 18.1 18 Sur 31 Sur 0 938.8 1.7 47
2019-05-31 23:00:00 20.1 13 Sur 25 Sur 0 938.3 1.3 41
2019-05-31 22:00:00 22.6 8 Sudoeste 17 Sudoeste 0 937.5 0.3 33
2019-05-31 21:00:00 25.1 13 Oeste 25 Sudoeste 0 937.1 -0.5 27
2019-05-31 20:00:00 26.6 14 Oeste 27 Oeste 0 937 -0.9 25
2019-05-31 19:00:00 27.1 14 Sudoeste 28 Sudoeste 0 937.2 -1.3 23
2019-05-31 18:00:00 27.8 12 Sudoeste -- -- 0 937.6 -1.3 22
2019-05-31 17:00:00 27.8 -- -- -- -- 0 937.9 -1.4 21
2019-05-31 16:00:00 27 16 Sudoeste 29 Sur 0 938.5 -1.2 20
2019-05-31 15:00:00 26.3 14 Sur 31 Sur 0 938.9 -1.1 21
2019-05-31 14:00:00 26 13 Sudoeste 31 Sudoeste 0 939.3 -0.9 27
2019-05-31 13:00:00 24.9 14 Sur 30 Sur 0 939.7 -0.6 29
2019-05-31 12:00:00 23.5 15 Sudoeste 31 Sudoeste 0 940 -0.2 28
2019-05-31 11:00:00 21.5 16 Sudoeste -- -- -- 940.2 0.1 34
2019-05-31 10:00:00 20.3 -- -- -- -- 0 940.3 0.3 44
2019-05-31 09:00:00 18.7 14 Sur 22 Sur 0 940.2 0.7 48
2019-05-31 08:00:00 14.6 9 Sudeste 14 Sudeste 0 940.1 0.4 60
2019-05-31 07:00:00 11.2 8 Este 18 Este 0 940 0.3 68
2019-05-31 06:00:00 11.1 12 Este 18 Este 0 939.5 -0.6 68
2019-05-31 05:00:00 13.2 9 Sudeste 17 Sur 0 939.7 -0.7 63
2019-05-31 04:00:00 13.9 12 Sur 18 Sur 0 939.7 -0.8 60
2019-05-31 03:00:00 14.9 9 Sur -- -- 0 940.1 -0.3 56
2019-05-31 02:00:00 16 12 Sur -- -- 0 940.4 0.7 55
2019-05-31 01:00:00 16.3 13 Sur -- -- 0 940.5 1.7 54
2019-05-31 00:00:00 17.7 11 Sur 18 Sur 0 940.4 2 48
2019-05-30 23:00:00 19 6 Sur 14 Sudoeste 0 939.7 1.7 40
2019-05-30 22:00:00 21.4 7 Sudoeste -- -- 0 938.8 0.7 34
2019-05-30 21:00:00 23.9 17 Oeste 26 Oeste 0 938.4 -0.2 27
2019-05-30 20:00:00 25.7 14 Oeste -- -- 0 938 -0.9 25
2019-05-30 19:00:00 26.5 11 Sudoeste -- -- 0 938.1 -1.1 23
2019-05-30 18:00:00 26.4 -- -- -- -- 0 938.6 -1.2 23
2019-05-30 17:00:00 26.1 -- -- -- -- 0 938.9 -1.2 25
2019-05-30 16:00:00 25.9 5 Sur 27 Sur 0 939.2 -1.2 27
2019-05-30 15:00:00 24.9 13 Sudoeste 30 Oeste 0 939.8 -0.9 27
2019-05-30 14:00:00 23.5 12 Sur 27 Sudoeste 0 940.1 -0.7 30
2019-05-30 13:00:00 22.3 12 Sudoeste 26 Sudoeste 0 940.4 -0.4 33
2019-05-30 12:00:00 20.9 13 Sudoeste 26 Sudoeste 0 940.7 0.1 34
2019-05-30 11:00:00 19.2 14 Sur 27 Sudoeste 0 940.8 0.4 39
2019-05-30 10:00:00 18.3 13 Sur 24 Sur 0 940.8 0.6 43
2019-05-30 09:00:00 16 16 Sur 26 Sudeste 0 940.6 0.8 48
2019-05-30 08:00:00 12.4 12 Sudeste 18 Sudeste 0 940.4 0.9 59
2019-05-30 07:00:00 10.2 11 Sudeste 16 Sudeste 0 940.2 0.7 65
2019-05-30 06:00:00 9.3 6 Sur 14 Sur 0 939.8 0.3 67
2019-05-30 05:00:00 10.9 9 Sudeste 16 Sur 0 939.5 -0.1 60
2019-05-30 04:00:00 11.5 11 Sur 19 Sur 0 939.5 0 58
2019-05-30 03:00:00 12.8 13 Sur 19 Sur 0 939.5 0.5 53
2019-05-30 02:00:00 14.3 9 Sur 24 Sudoeste 0 939.6 1.2 49
2019-05-30 01:00:00 15.9 11 Sur 23 Sur 0 939.5 2.2 45
2019-05-30 00:00:00 16.5 12 Sudeste 18 Sudeste 0 939 2.5 43
2019-05-29 23:00:00 18.2 13 Sudeste 20 Sudeste 0 938.4 2.7 38
2019-05-29 22:00:00 19.2 14 Este 25 Este 0 937.3 1.9 37
2019-05-29 21:00:00 23.1 18 Este 35 Este 0 936.5 1 26
2019-05-29 20:00:00 25.6 20 Este 36 Este 0 935.7 -0.1 24
2019-05-29 19:00:00 26.3 18 Este 35 Nordeste 0 935.4 -0.7 21
2019-05-29 18:00:00 26.3 9 Este 31 Este 0 935.5 -1 21
2019-05-29 17:00:00 25.9 16 Este 30 Nordeste 0 935.8 -1.3 20
2019-05-29 16:00:00 24.8 7 Sudeste 31 Nordeste 0 936.1 -1.3 20
2019-05-29 15:00:00 23.3 13 Sudeste 27 Sudeste 0 936.5 -0.9 21
2019-05-29 14:00:00 21.8 15 Sudeste 32 Este 0 937.1 -0.6 24
2019-05-29 13:00:00 20.4 12 Este 23 Sudeste 0 937.4 -0.8 25
2019-05-29 12:00:00 18.6 8 Sudeste 18 Este 0 937.4 -0.3 31
2019-05-29 11:00:00 16.4 8 Sudeste 28 Este 0 937.7 0.4 38
2019-05-29 10:00:00 15.1 14 Sudeste 24 Este 0 938.2 1.4 40
2019-05-29 09:00:00 13.1 14 Este 28 Sudeste 0 937.7 1.4 47
2019-05-29 08:00:00 11 16 Sudeste 26 Sudeste 0 937.3 1.2 52
2019-05-29 07:00:00 9.6 15 Sudeste 26 Este 0 936.8 1 58
2019-05-29 06:00:00 9.1 10 Este 15 Este 0 936.3 0.7 61
2019-05-29 05:00:00 9.7 10 Sudeste 13 Este 0 936.1 0.6 60
2019-05-29 04:00:00 10.6 6 Este 17 Este 0 935.8 0.4 58
2019-05-29 03:00:00 12.3 8 Sudeste 13 Sudeste 0 935.6 0.9 54
2019-05-29 02:00:00 13.1 8 Sudeste 13 Este 0 935.5 1.7 53
2019-05-29 01:00:00 15.3 11 Sudeste 26 Sudeste 0 935.4 2.7 46
2019-05-29 00:00:00 16.3 15 Sudeste 24 Este 0 934.7 2.5 44
2019-05-28 23:00:00 16.6 12 Sudeste 20 Sudeste 0 933.8 2 40
2019-05-28 22:00:00 18.9 7 Este 10 Este 0 932.7 1.4 35
2019-05-28 21:00:00 22.5 7 Este 31 Este 0 932.2 1.4 26
2019-05-28 20:00:00 24.4 21 Este 38 Este 0 931.8 1.3 20
2019-05-28 19:00:00 25.3 23 Este 39 Este 0 931.3 0.7 17
2019-05-28 18:00:00 25.8 23 Este 42 Este 0 930.8 -0.1 16
2019-05-28 17:00:00 26.8 20 Nordeste 39 Nordeste 0 930.5 -0.6 14
2019-05-28 16:00:00 26.5 24 Nordeste -- -- 0 930.6 -0.7 16
2019-05-28 15:00:00 25.7 18 Nordeste -- -- -- 930.9 -0.4 20
2019-05-28 14:00:00 25.1 -- -- -- -- 0 931.1 -0.2 26
2019-05-28 13:00:00 24.6 17 Nordeste 36 Nordeste 0 931.3 0 30
2019-05-28 12:00:00 23.8 13 Este 30 Sudeste 0 931.3 0.2 33
2019-05-28 11:00:00 21.8 8 Nordeste 17 Este 0 931.3 0.6 42
2019-05-28 10:00:00 20.4 6 Este 14 Este 0 931.3 1.1 46
2019-05-28 09:00:00 16.8 9 Sudeste 18 Sudeste 0 931.1 1.1 61
2019-05-28 08:00:00 14 4 Sudeste 10 Sudeste 0 930.7 0.7 70
2019-05-28 07:00:00 11.3 7 Sudeste 11 Este 0 930.2 0.3 79
2019-05-28 06:00:00 11.3 5 Sudeste 18 Este 0 930 -0.2 78
2019-05-28 05:00:00 12.7 11 Este 18 Este 0 930 -0.4 73
2019-05-28 04:00:00 13.3 12 Este 20 Este 0 929.9 0 71
2019-05-28 03:00:00 14.5 5 Sudeste 18 Este 0 930.2 0.7 65
2019-05-28 02:00:00 15.2 8 Sudeste 14 Sudeste 0 930.4 1.5 65
2019-05-28 01:00:00 16.8 12 Sudeste 23 Sur 0 929.9 1.6 61
2019-05-28 00:00:00 16.8 12 Sudeste 21 Sur 0 929.5 1.8 55
2019-05-27 23:00:00 17.9 11 Este 16 Este 0 928.9 1.3 51
2019-05-27 22:00:00 20.8 9 Este 12 Este 0 928.3 0.7 41
2019-05-27 21:00:00 24.9 6 Este 24 Nordeste 0 927.7 -0.3 32
2019-05-27 20:00:00 27.5 15 Nordeste -- -- 0 927.6 -0.8 24
2019-05-27 19:00:00 27.9 19 Nordeste -- -- 0 927.6 -1 23
2019-05-27 18:00:00 28 24 Nordeste 44 Nordeste 0 928 -1 23
2019-05-27 17:00:00 27.7 30 Norte -- -- 0 928.4 -1.2 25
2019-05-27 16:00:00 27.5 -- -- -- -- 0 928.6 -1.7 25
2019-05-27 15:00:00 26.6 24 Norte 56 Norte 0 929 -1.8 26
2019-05-27 14:00:00 26.1 18 Nordeste 36 Nordeste 0 929.6 -1.5 27
2019-05-27 13:00:00 24.9 21 Nordeste 33 Nordeste 0 930.3 -1.4 27
2019-05-27 12:00:00 23.7 17 Nordeste 32 Este 0 930.8 -0.8 31
2019-05-27 11:00:00 19.6 7 Noroeste 17 Norte 0 931.1 -0.5 47
2019-05-27 10:00:00 17.2 11 Noroeste 17 Noroeste 0 931.7 0.3 55
2019-05-27 09:00:00 16 5 Este 12 Este 0 931.6 0.3 57
2019-05-27 08:00:00 11.6 8 Sudeste 14 Este 0 931.6 0.3 70
2019-05-27 07:00:00 9.2 6 Este 13 Este 0 931.4 -0.2 80
2019-05-27 06:00:00 9.7 6 Este 12 Este 0 931.3 -0.7 79
2019-05-27 05:00:00 9.6 8 Este 13 Este 0 931.3 -1 80
2019-05-27 04:00:00 10.9 7 Este 15 Este 0 931.6 -1.1 76
2019-05-27 03:00:00 11.7 10 Este 19 Este 0 932 -0.8 72
2019-05-27 02:00:00 12.4 9 Este 15 Este 0 932.3 -0.2 65
2019-05-27 01:00:00 13.5 10 Este 13 Este 0 932.7 1.1 59
2019-05-27 00:00:00 14.9 6 Este 15 Sudeste 0 932.8 1.5 52
2019-05-26 23:00:00 17 8 Este 17 Sudeste 0 932.5 1.5 43
2019-05-26 22:00:00 18.5 10 Este 19 Este 0 931.6 0.6 37
2019-05-26 21:00:00 22.4 12 Este 31 Este 0 931.3 0 27
2019-05-26 20:00:00 24.9 19 Este -- -- 0 931 -0.6 23
2019-05-26 19:00:00 25.4 -- -- -- -- 0 931 -1 23
2019-05-26 18:00:00 25.3 14 Este 33 Este 0 931.3 -1.1 25
2019-05-26 17:00:00 25 9 Este -- -- 0 931.6 -1.2 26
2019-05-26 16:00:00 24.2 17 Nordeste -- -- 0 932 -1.2 26
2019-05-26 15:00:00 23.3 16 Este -- -- 0 932.4 -1.3 29
2019-05-26 14:00:00 22.3 13 Este -- -- 0 932.8 -1.2 29
2019-05-26 13:00:00 20.7 11 Norte -- -- 0 933.2 -1.3 34
2019-05-26 12:00:00 19.4 -- -- -- -- 0 933.7 -0.7 41
2019-05-26 11:00:00 17.6 -- -- -- -- 0 934 -0.5 52
2019-05-26 10:00:00 15.8 8 Este 21 Sudeste 0 934.5 0.2 58
2019-05-26 09:00:00 13.6 13 Este 19 Este 0 934.4 0.4 66
2019-05-26 08:00:00 12.1 8 Sudeste 16 Sudeste 0 934.5 0.5 73
2019-05-26 07:00:00 9.7 9 Sudeste 17 Sudeste 0 934.3 0.1 84
2019-05-26 06:00:00 10 9 Este 19 Sudeste 0 934 -0.4 83
2019-05-26 05:00:00 10.6 13 Este 20 Este 0 934 -0.8 80
2019-05-26 04:00:00 10.4 11 Este 16 Este 0 934.2 -0.7 81
2019-05-26 03:00:00 12.1 8 Sudeste 18 Sudeste 0 934.4 -0.3 74
2019-05-26 02:00:00 12.9 9 Este 14 Este 0 934.8 0.3 72
2019-05-26 01:00:00 14 7 Sudeste 11 Sudeste 0 934.9 1.2 68
2019-05-26 00:00:00 16.2 6 Sudeste 17 Sur 0 934.7 1.5 62
2019-05-25 23:00:00 18.7 7 Sur 15 Sudoeste 0 934.5 1.7 49
2019-05-25 22:00:00 19.3 4 Este 10 Sudeste 0 933.7 1 59
2019-05-25 21:00:00 20.9 6 Sudeste 12 Sudeste 0 933.2 0.3 43
2019-05-25 20:00:00 22 8 Nordeste 16 Este 0 932.8 0 37
2019-05-25 19:00:00 22.8 -- -- -- -- 0 932.7 -0.2 33
2019-05-25 18:00:00 22.5 12 Sur 34 Sudeste 0 932.9 -0.3 34
2019-05-25 17:00:00 22.2 19 Sur 31 Sur 0 932.8 -0.9 35
2019-05-25 16:00:00 22.6 13 Sudeste 23 Sudeste 0 932.9 -1.1 34
2019-05-25 15:00:00 21.5 9 Nordeste 24 Este 0 933.2 -0.9 40
2019-05-25 14:00:00 20.7 6 Nordeste 23 Sudeste 0 933.7 -0.4 41
2019-05-25 13:00:00 19.1 8 Sur 20 Este 0 934 0 48
2019-05-25 12:00:00 18.4 9 Sudeste 28 Sudeste 0 934.1 0.4 49
2019-05-25 11:00:00 17.1 13 Sudeste 24 Este 0 934.1 0.8 51
2019-05-25 10:00:00 15.7 14 Sudeste 24 Este 0 934 0.9 55
2019-05-25 09:00:00 13.7 9 Este 17 Este 0 933.7 0.9 69
2019-05-25 08:00:00 10.9 9 Este 17 Este 0 933.3 0.7 79
2019-05-25 07:00:00 8 10 Este 15 Este 0 933.1 0.5 88
2019-05-25 06:00:00 8.1 8 Este 13 Este 0 932.8 0.3 89
2019-05-25 05:00:00 9.3 10 Este 15 Este 0 932.6 -0.2 86
2019-05-25 04:00:00 10.1 8 Este 14 Este 0 932.6 -0.4 85
2019-05-25 03:00:00 10.1 8 Este 12 Este 0 932.5 -0.3 90
2019-05-25 02:00:00 11 6 Este 9 Este 0 932.8 0.1 89
2019-05-25 01:00:00 11.7 6 Sudeste 9 Este 0 933 1.1 89
2019-05-25 00:00:00 13 5 Sur 12 Sudoeste 0 932.8 1.7 85
2019-05-24 23:00:00 14.2 5 Sudoeste -- -- 0 932.7 2.1 80
2019-05-24 22:00:00 15 8 Sudoeste 22 Sudoeste 0 931.9 1.7 77
2019-05-24 21:00:00 16.3 13 Sudoeste -- -- 0 931.1 1.1 69
2019-05-24 20:00:00 17.5 14 Sudoeste 28 Sur 0 930.6 1 63
2019-05-24 19:00:00 18.9 17 Sur -- -- 0 930.2 0.2 58
2019-05-24 18:00:00 19.9 16 Sudeste 27 Sur 0 930 0.6 55
2019-05-24 17:00:00 18.7 -- -- -- -- 0 929.6 0.6 64
2019-05-24 16:00:00 15.1 -- -- -- -- 8.8 930 0.5 88
2019-05-24 15:00:00 17.7 -- -- -- -- 0 929.4 -0.3 60
2019-05-24 14:00:00 22.6 23 Sur 38 Sur 0 929 -1 44
2019-05-24 13:00:00 22.9 6 Sur 19 Sur 0 929.5 -0.5 38
2019-05-24 12:00:00 21.1 6 Oeste 15 Norte 0 929.7 -0.1 38
2019-05-24 11:00:00 19.5 5 Sudeste 14 Norte 0 930 0.5 42
2019-05-24 10:00:00 17.5 13 Norte 19 Norte 0 930 0.1 50
2019-05-24 09:00:00 15.3 9 Norte 14 Norte 0 929.8 0.1 55
2019-05-24 08:00:00 14.3 3 Sudeste 8 Nordeste 0 929.5 -0.3 58
2019-05-24 07:00:00 13.8 5 Norte 9 Norte 0 929.9 -0.1 57
2019-05-24 06:00:00 13.9 8 Norte 13 Norte 0 929.7 -0.6 55
2019-05-24 05:00:00 13.3 9 Norte 10 Norte 0 929.8 -0.7 55
2019-05-24 04:00:00 14.3 3 Este 9 Norte 0 930 -0.9 51
2019-05-24 03:00:00 15.6 8 Norte 12 Noroeste 0 930.3 -0.9 47
2019-05-24 02:00:00 17.6 3 Oeste 14 Oeste 0 930.5 -0.7 42
2019-05-24 01:00:00 18.6 4 Norte 17 Nordeste 0 930.9 0.1 39
2019-05-24 00:00:00 20.3 13 Nordeste 17 Nordeste 0 931.2 0.4 34
2019-05-23 23:00:00 20 7 Nordeste 14 Nordeste 0 931.2 0.4 37
2019-05-23 22:00:00 21.3 0 Calma 6 Nordeste 0 930.8 -0.1 36
2019-05-23 21:00:00 24.1 6 Nordeste 20 Norte 0 930.8 -0.5 29
2019-05-23 20:00:00 26.2 12 Norte 29 Norte 0 930.8 -1 24
2019-05-23 19:00:00 27.8 13 Norte -- -- 0 930.9 -1.4 21
2019-05-23 18:00:00 27.8 12 Norte -- -- 0 931.3 -1.6 22
2019-05-23 17:00:00 28.1 19 Norte 40 Norte 0 931.8 -1.8 21
2019-05-23 16:00:00 28.1 18 Norte -- -- 0 932.3 -1.8 21
2019-05-23 15:00:00 27 14 Norte 34 Nordeste 0 932.9 -1.5 25
2019-05-23 14:00:00 26.2 10 Norte 34 Noroeste 0 933.6 -1.2 27
2019-05-23 13:00:00 25.2 9 Norte 19 Norte 0 934.1 -0.7 30
2019-05-23 12:00:00 24.2 11 Noroeste 19 Noroeste 0 934.4 -0.3 34
2019-05-23 11:00:00 21.9 8 Noroeste 13 Oeste 0 934.8 0.5 42
2019-05-23 10:00:00 18.8 4 Sudoeste 11 Sudoeste 0 934.8 0.7 50
2019-05-23 09:00:00 16 6 Sudoeste 9 Sudoeste 0 934.7 0.8 62
2019-05-23 08:00:00 13.6 6 Sudeste 8 Sudeste 0 934.3 0.3 74
2019-05-23 07:00:00 12.3 5 Sudeste 10 Sudeste 0 934.1 0.5 77
2019-05-23 06:00:00 12.2 7 Sudeste 13 Sudeste 0 933.9 0.2 76
2019-05-23 05:00:00 13.4 10 Este 14 Este 0 934 0.2 70
2019-05-23 04:00:00 14.2 9 Sur 15 Sur 0 933.6 -0.3 71
2019-05-23 03:00:00 13.9 8 Sur 12 Sudeste 0 933.7 0 65
2019-05-23 02:00:00 14 7 Sur 11 Sudeste 0 933.8 0.3 64
2019-05-23 01:00:00 15.3 6 Sudeste 10 Sudoeste 0 933.9 0.8 56
2019-05-23 00:00:00 17.3 5 Sur 11 Sur 0 933.7 1.2 52
2019-05-22 23:00:00 18.8 7 Sur 12 Sur 0 933.5 1.2 48
2019-05-22 22:00:00 20.4 8 Sudoeste 15 Sudoeste 0 933.1 1 37
2019-05-22 21:00:00 23.1 6 Nordeste 16 Nordeste 0 932.5 0.2 28
2019-05-22 20:00:00 25.5 10 Nordeste 20 Nordeste 0 932.3 -0.3 23
2019-05-22 19:00:00 26.8 13 Norte 25 Norte 0 932.1 -0.8 22
2019-05-22 18:00:00 27.7 7 Norte 27 Noroeste 0 932.3 -1.1 21
2019-05-22 17:00:00 27.4 6 Noroeste -- -- 0 932.6 -1.1 23
2019-05-22 16:00:00 27 13 Norte 27 Norte 0 932.9 -1.2 24
2019-05-22 15:00:00 25.5 6 Norte 31 Noroeste 0 933.4 -1 27
2019-05-22 14:00:00 25 6 Sudeste 21 Norte 0 933.7 -0.6 25
2019-05-22 13:00:00 23.3 8 Sur 20 Sudoeste 0 934.1 -0.2 38
2019-05-22 12:00:00 21.6 9 Sudoeste 19 Sudoeste 0 934.4 0.5 44
2019-05-22 11:00:00 19.1 9 Sudoeste 21 Sudoeste 0 934.3 0.5 52
2019-05-22 10:00:00 17.4 11 Sudoeste 22 Sudoeste 0 934.3 0.8 57
2019-05-22 09:00:00 16 11 Sur 18 Sur 0 933.9 0.8 61
2019-05-22 08:00:00 11 6 Este 12 Este 0 933.8 0.7 80
2019-05-22 07:00:00 8.9 8 Este 14 Este 0 933.5 0.5 85
2019-05-22 06:00:00 10 9 Sudeste 14 Sudeste 0 933.1 0 84
2019-05-22 05:00:00 9.9 8 Sudeste 14 Sudeste 0 933.1 -0.1 85
2019-05-22 04:00:00 10.6 6 Sudeste 12 Sudeste 0 933 -0.2 81
2019-05-22 03:00:00 11.6 9 Sudeste 17 Sur 0 933.1 0 80
2019-05-22 02:00:00 12.9 10 Sudeste 20 Sudoeste 0 933.2 0.1 76
2019-05-22 01:00:00 13.5 10 Sur 28 Sudoeste 0 933.2 0.9 76
2019-05-22 00:00:00 14.5 17 Sudoeste 31 Sudoeste 0 933.1 1.6 72